sensor_id;sensor_type;location;lat;lon;timestamp;temperature;humidity
6788;DHT22;3431;47.966;10.268;2023-11-22T00:00:12;6.00;99.90
6788;DHT22;3431;47.966;10.268;2023-11-22T00:00:34;6.10;99.90
6788;DHT22;3431;47.966;10.268;2023-11-22T00:00:56;6.10;99.90
6788;DHT22;3431;47.966;10.268;2023-11-22T00:01:18;6.10;99.90
6788;DHT22;3431;47.966;10.268;2023-11-22T00:01:40;6.10;99.90
6788;DHT22;3431;47.966;10.268;2023-11-22T00:02:01;6.10;99.90
6788;DHT22;3431;47.966;10.268;2023-11-22T00:02:23;6.10;99.90
6788;DHT22;3431;47.966;10.268;2023-11-22T00:02:48;6.10;99.90
6788;DHT22;3431;47.966;10.268;2023-11-22T00:03:09;6.10;99.90
6788;DHT22;3431;47.966;10.268;2023-11-22T00:03:32;6.10;99.90
6788;DHT22;3431;47.966;10.268;2023-11-22T00:03:54;6.10;99.90
6788;DHT22;3431;47.966;10.268;2023-11-22T00:04:15;6.10;99.90
6788;DHT22;3431;47.966;10.268;2023-11-22T00:04:38;6.10;99.90
6788;DHT22;3431;47.966;10.268;2023-11-22T00:05:00;6.10;99.90
6788;DHT22;3431;47.966;10.268;2023-11-22T00:05:23;6.10;99.90
6788;DHT22;3431;47.966;10.268;2023-11-22T00:05:44;6.10;99.90
6788;DHT22;3431;47.966;10.268;2023-11-22T00:06:06;6.10;99.90
6788;DHT22;3431;47.966;10.268;2023-11-22T00:06:28;6.10;99.90
6788;DHT22;3431;47.966;10.268;2023-11-22T00:06:51;6.10;99.90
6788;DHT22;3431;47.966;10.268;2023-11-22T00:07:13;6.10;99.90
6788;DHT22;3431;47.966;10.268;2023-11-22T00:07:35;6.10;99.90
6788;DHT22;3431;47.966;10.268;2023-11-22T00:07:59;6.10;99.90
6788;DHT22;3431;47.966;10.268;2023-11-22T00:08:21;6.10;99.90
6788;DHT22;3431;47.966;10.268;2023-11-22T00:08:42;6.10;99.90
6788;DHT22;3431;47.966;10.268;2023-11-22T00:09:05;6.10;99.90
6788;DHT22;3431;47.966;10.268;2023-11-22T00:09:26;6.10;99.90
6788;DHT22;3431;47.966;10.268;2023-11-22T00:09:48;6.10;99.90
6788;DHT22;3431;47.966;10.268;2023-11-22T00:10:09;6.10;99.90
6788;DHT22;3431;47.966;10.268;2023-11-22T00:10:31;6.10;99.90
6788;DHT22;3431;47.966;10.268;2023-11-22T00:10:52;6.10;99.90
6788;DHT22;3431;47.966;10.268;2023-11-22T00:11:15;6.10;99.90
6788;DHT22;3431;47.966;10.268;2023-11-22T00:11:36;6.10;99.90
6788;DHT22;3431;47.966;10.268;2023-11-22T00:11:58;6.10;99.90
6788;DHT22;3431;47.966;10.268;2023-11-22T00:12:21;6.10;99.90
6788;DHT22;3431;47.966;10.268;2023-11-22T00:12:44;6.00;99.90
6788;DHT22;3431;47.966;10.268;2023-11-22T00:13:05;6.10;99.90
6788;DHT22;3431;47.966;10.268;2023-11-22T00:13:27;6.10;99.90
6788;DHT22;3431;47.966;10.268;2023-11-22T00:13:48;6.10;99.90
6788;DHT22;3431;47.966;10.268;2023-11-22T00:14:10;6.10;99.90
6788;DHT22;3431;47.966;10.268;2023-11-22T00:14:31;6.10;99.90
6788;DHT22;3431;47.966;10.268;2023-11-22T00:14:54;6.10;99.90
6788;DHT22;3431;47.966;10.268;2023-11-22T00:15:16;6.10;99.90
6788;DHT22;3431;47.966;10.268;2023-11-22T00:15:39;6.10;99.90
6788;DHT22;3431;47.966;10.268;2023-11-22T00:16:01;6.10;99.90
6788;DHT22;3431;47.966;10.268;2023-11-22T00:16:22;6.10;99.90
6788;DHT22;3431;47.966;10.268;2023-11-22T00:16:44;6.10;99.90
6788;DHT22;3431;47.966;10.268;2023-11-22T00:17:07;6.10;99.90
6788;DHT22;3431;47.966;10.268;2023-11-22T00:17:28;6.00;99.90
6788;DHT22;3431;47.966;10.268;2023-11-22T00:17:50;6.00;99.90
6788;DHT22;3431;47.966;10.268;2023-11-22T00:18:11;6.00;99.90
6788;DHT22;3431;47.966;10.268;2023-11-22T00:18:33;6.00;99.90
6788;DHT22;3431;47.966;10.268;2023-11-22T00:18:54;6.00;99.90
6788;DHT22;3431;47.966;10.268;2023-11-22T00:19:16;6.00;99.90
6788;DHT22;3431;47.966;10.268;2023-11-22T00:19:43;6.00;99.90
6788;DHT22;3431;47.966;10.268;2023-11-22T00:20:06;6.00;99.90
6788;DHT22;3431;47.966;10.268;2023-11-22T00:20:29;6.00;99.90
6788;DHT22;3431;47.966;10.268;2023-11-22T00:20:51;6.00;99.90
6788;DHT22;3431;47.966;10.268;2023-11-22T00:21:12;6.00;99.90
6788;DHT22;3431;47.966;10.268;2023-11-22T00:21:35;6.00;99.90
6788;DHT22;3431;47.966;10.268;2023-11-22T00:21:57;6.00;99.90
6788;DHT22;3431;47.966;10.268;2023-11-22T00:22:18;6.00;99.90
6788;DHT22;3431;47.966;10.268;2023-11-22T00:22:40;6.00;99.90
6788;DHT22;3431;47.966;10.268;2023-11-22T00:23:03;6.00;99.90
6788;DHT22;3431;47.966;10.268;2023-11-22T00:23:26;6.00;99.90
6788;DHT22;3431;47.966;10.268;2023-11-22T00:23:51;6.00;99.90
6788;DHT22;3431;47.966;10.268;2023-11-22T00:24:12;6.00;99.90
6788;DHT22;3431;47.966;10.268;2023-11-22T00:24:34;6.00;99.90
6788;DHT22;3431;47.966;10.268;2023-11-22T00:24:56;6.00;99.90
6788;DHT22;3431;47.966;10.268;2023-11-22T00:25:19;6.00;99.90
6788;DHT22;3431;47.966;10.268;2023-11-22T00:25:40;6.00;99.90
6788;DHT22;3431;47.966;10.268;2023-11-22T00:26:02;6.00;99.90
6788;DHT22;3431;47.966;10.268;2023-11-22T00:26:24;6.00;99.90
6788;DHT22;3431;47.966;10.268;2023-11-22T00:26:51;6.00;99.90
6788;DHT22;3431;47.966;10.268;2023-11-22T00:27:14;6.00;99.90
6788;DHT22;3431;47.966;10.268;2023-11-22T00:27:36;6.00;99.90
6788;DHT22;3431;47.966;10.268;2023-11-22T00:28:00;6.00;99.90
6788;DHT22;3431;47.966;10.268;2023-11-22T00:28:21;6.00;99.90
6788;DHT22;3431;47.966;10.268;2023-11-22T00:28:43;6.00;99.90
6788;DHT22;3431;47.966;10.268;2023-11-22T00:29:06;5.90;99.90
6788;DHT22;3431;47.966;10.268;2023-11-22T00:29:27;6.00;99.90
6788;DHT22;3431;47.966;10.268;2023-11-22T00:29:49;5.90;99.90
6788;DHT22;3431;47.966;10.268;2023-11-22T00:30:11;5.90;99.90
6788;DHT22;3431;47.966;10.268;2023-11-22T00:30:33;5.90;99.90
6788;DHT22;3431;47.966;10.268;2023-11-22T00:30:56;5.90;99.90
6788;DHT22;3431;47.966;10.268;2023-11-22T00:31:17;5.90;99.90
6788;DHT22;3431;47.966;10.268;2023-11-22T00:31:39;5.90;99.90
6788;DHT22;3431;47.966;10.268;2023-11-22T00:32:01;5.90;99.90
6788;DHT22;3431;47.966;10.268;2023-11-22T00:32:24;5.90;99.90
6788;DHT22;3431;47.966;10.268;2023-11-22T00:32:46;5.90;99.90
6788;DHT22;3431;47.966;10.268;2023-11-22T00:33:08;5.90;99.90
6788;DHT22;3431;47.966;10.268;2023-11-22T00:33:30;5.90;99.90
6788;DHT22;3431;47.966;10.268;2023-11-22T00:33:52;6.00;99.90
6788;DHT22;3431;47.966;10.268;2023-11-22T00:34:15;6.00;99.90
6788;DHT22;3431;47.966;10.268;2023-11-22T00:34:36;6.00;99.90
6788;DHT22;3431;47.966;10.268;2023-11-22T00:34:58;6.00;99.90
6788;DHT22;3431;47.966;10.268;2023-11-22T00:35:19;6.00;99.90
6788;DHT22;3431;47.966;10.268;2023-11-22T00:35:41;6.00;99.90
6788;DHT22;3431;47.966;10.268;2023-11-22T00:36:03;6.00;99.90
6788;DHT22;3431;47.966;10.268;2023-11-22T00:36:29;5.90;99.90
6788;DHT22;3431;47.966;10.268;2023-11-22T00:36:50;6.00;99.90
6788;DHT22;3431;47.966;10.268;2023-11-22T00:37:12;6.00;99.90
6788;DHT22;3431;47.966;10.268;2023-11-22T00:37:34;6.00;99.90
6788;DHT22;3431;47.966;10.268;2023-11-22T00:37:56;6.00;99.90
6788;DHT22;3431;47.966;10.268;2023-11-22T00:38:20;6.00;99.90
6788;DHT22;3431;47.966;10.268;2023-11-22T00:38:43;6.00;99.90
6788;DHT22;3431;47.966;10.268;2023-11-22T00:39:05;6.00;99.90
6788;DHT22;3431;47.966;10.268;2023-11-22T00:39:26;6.10;99.90
6788;DHT22;3431;47.966;10.268;2023-11-22T00:39:48;6.10;99.90
6788;DHT22;3431;47.966;10.268;2023-11-22T00:40:10;6.00;99.90
6788;DHT22;3431;47.966;10.268;2023-11-22T00:40:33;6.00;99.90
6788;DHT22;3431;47.966;10.268;2023-11-22T00:40:55;6.10;99.90
6788;DHT22;3431;47.966;10.268;2023-11-22T00:41:16;6.10;99.90
6788;DHT22;3431;47.966;10.268;2023-11-22T00:41:38;6.10;99.90
6788;DHT22;3431;47.966;10.268;2023-11-22T00:42:00;6.10;99.90
6788;DHT22;3431;47.966;10.268;2023-11-22T00:42:22;6.10;99.90
6788;DHT22;3431;47.966;10.268;2023-11-22T00:42:43;6.10;99.90
6788;DHT22;3431;47.966;10.268;2023-11-22T00:43:05;6.10;99.90
6788;DHT22;3431;47.966;10.268;2023-11-22T00:43:27;6.10;99.90
6788;DHT22;3431;47.966;10.268;2023-11-22T00:43:48;6.10;99.90
6788;DHT22;3431;47.966;10.268;2023-11-22T00:44:11;6.50;99.90
6788;DHT22;3431;47.966;10.268;2023-11-22T00:44:33;6.10;99.90
6788;DHT22;3431;47.966;10.268;2023-11-22T00:44:55;6.10;99.90
6788;DHT22;3431;47.966;10.268;2023-11-22T00:45:17;6.10;99.90
6788;DHT22;3431;47.966;10.268;2023-11-22T00:45:39;6.20;99.90
6788;DHT22;3431;47.966;10.268;2023-11-22T00:46:01;6.10;99.90
6788;DHT22;3431;47.966;10.268;2023-11-22T00:46:22;6.20;99.90
6788;DHT22;3431;47.966;10.268;2023-11-22T00:46:45;6.20;99.90
6788;DHT22;3431;47.966;10.268;2023-11-22T00:47:07;6.20;99.90
6788;DHT22;3431;47.966;10.268;2023-11-22T00:47:28;6.20;99.90
6788;DHT22;3431;47.966;10.268;2023-11-22T00:47:50;6.20;99.90
6788;DHT22;3431;47.966;10.268;2023-11-22T00:48:11;6.20;99.90
6788;DHT22;3431;47.966;10.268;2023-11-22T00:48:33;6.20;99.90
6788;DHT22;3431;47.966;10.268;2023-11-22T00:48:57;6.20;99.90
6788;DHT22;3431;47.966;10.268;2023-11-22T00:49:18;6.20;99.90
6788;DHT22;3431;47.966;10.268;2023-11-22T00:49:40;6.20;99.90
6788;DHT22;3431;47.966;10.268;2023-11-22T00:50:02;6.20;99.90
6788;DHT22;3431;47.966;10.268;2023-11-22T00:50:25;6.20;99.90
6788;DHT22;3431;47.966;10.268;2023-11-22T00:50:49;6.30;99.90
6788;DHT22;3431;47.966;10.268;2023-11-22T00:51:10;6.30;99.90
6788;DHT22;3431;47.966;10.268;2023-11-22T00:51:32;6.30;99.90
6788;DHT22;3431;47.966;10.268;2023-11-22T00:51:54;6.30;99.90
6788;DHT22;3431;47.966;10.268;2023-11-22T00:52:15;6.30;99.90
6788;DHT22;3431;47.966;10.268;2023-11-22T00:52:37;6.30;99.90
6788;DHT22;3431;47.966;10.268;2023-11-22T00:53:00;6.30;99.90
6788;DHT22;3431;47.966;10.268;2023-11-22T00:53:24;6.30;99.90
6788;DHT22;3431;47.966;10.268;2023-11-22T00:53:45;6.30;99.90
6788;DHT22;3431;47.966;10.268;2023-11-22T00:54:07;6.30;99.90
6788;DHT22;3431;47.966;10.268;2023-11-22T00:54:29;6.30;99.90
6788;DHT22;3431;47.966;10.268;2023-11-22T00:54:50;6.30;99.90
6788;DHT22;3431;47.966;10.268;2023-11-22T00:55:12;6.30;99.90
6788;DHT22;3431;47.966;10.268;2023-11-22T00:55:34;6.30;99.90
6788;DHT22;3431;47.966;10.268;2023-11-22T00:55:56;6.30;99.90
6788;DHT22;3431;47.966;10.268;2023-11-22T00:56:18;6.30;99.90
6788;DHT22;3431;47.966;10.268;2023-11-22T00:56:39;6.30;99.90
6788;DHT22;3431;47.966;10.268;2023-11-22T00:57:01;6.30;99.90
6788;DHT22;3431;47.966;10.268;2023-11-22T00:57:23;6.30;99.90
6788;DHT22;3431;47.966;10.268;2023-11-22T00:57:45;6.30;99.90
6788;DHT22;3431;47.966;10.268;2023-11-22T00:58:07;6.40;99.90
6788;DHT22;3431;47.966;10.268;2023-11-22T00:58:28;6.30;99.90
6788;DHT22;3431;47.966;10.268;2023-11-22T00:58:50;6.30;99.90
6788;DHT22;3431;47.966;10.268;2023-11-22T00:59:11;6.40;99.90
6788;DHT22;3431;47.966;10.268;2023-11-22T00:59:35;6.40;99.90
6788;DHT22;3431;47.966;10.268;2023-11-22T00:59:56;6.40;99.90
6788;DHT22;3431;47.966;10.268;2023-11-22T01:00:18;6.40;99.90
6788;DHT22;3431;47.966;10.268;2023-11-22T01:00:39;6.70;99.90
6788;DHT22;3431;47.966;10.268;2023-11-22T01:01:01;6.40;99.90
6788;DHT22;3431;47.966;10.268;2023-11-22T01:01:24;6.40;99.90
6788;DHT22;3431;47.966;10.268;2023-11-22T01:01:45;6.40;99.90
6788;DHT22;3431;47.966;10.268;2023-11-22T01:02:07;6.40;99.90
6788;DHT22;3431;47.966;10.268;2023-11-22T01:02:30;6.40;99.90
6788;DHT22;3431;47.966;10.268;2023-11-22T01:02:51;6.40;99.90
6788;DHT22;3431;47.966;10.268;2023-11-22T01:03:13;6.40;99.90
6788;DHT22;3431;47.966;10.268;2023-11-22T01:03:35;6.40;99.90
6788;DHT22;3431;47.966;10.268;2023-11-22T01:03:57;6.50;99.90
6788;DHT22;3431;47.966;10.268;2023-11-22T01:04:18;6.50;99.90
6788;DHT22;3431;47.966;10.268;2023-11-22T01:04:40;6.50;99.90
6788;DHT22;3431;47.966;10.268;2023-11-22T01:05:02;6.50;99.90
6788;DHT22;3431;47.966;10.268;2023-11-22T01:05:23;6.50;99.90
6788;DHT22;3431;47.966;10.268;2023-11-22T01:05:46;6.50;99.90
6788;DHT22;3431;47.966;10.268;2023-11-22T01:06:07;6.50;99.90
6788;DHT22;3431;47.966;10.268;2023-11-22T01:06:30;6.60;99.90
6788;DHT22;3431;47.966;10.268;2023-11-22T01:06:53;6.50;99.90
6788;DHT22;3431;47.966;10.268;2023-11-22T01:07:14;6.50;99.90
6788;DHT22;3431;47.966;10.268;2023-11-22T01:07:36;6.60;99.90
6788;DHT22;3431;47.966;10.268;2023-11-22T01:07:59;6.60;99.90
6788;DHT22;3431;47.966;10.268;2023-11-22T01:08:20;6.60;99.90
6788;DHT22;3431;47.966;10.268;2023-11-22T01:08:43;6.60;99.90
6788;DHT22;3431;47.966;10.268;2023-11-22T01:09:05;6.60;99.90
6788;DHT22;3431;47.966;10.268;2023-11-22T01:09:27;6.50;99.90
6788;DHT22;3431;47.966;10.268;2023-11-22T01:09:50;6.60;99.90
6788;DHT22;3431;47.966;10.268;2023-11-22T01:10:12;6.60;99.90
6788;DHT22;3431;47.966;10.268;2023-11-22T01:10:34;6.60;99.90
6788;DHT22;3431;47.966;10.268;2023-11-22T01:10:55;6.60;99.90
6788;DHT22;3431;47.966;10.268;2023-11-22T01:11:18;6.60;99.90
6788;DHT22;3431;47.966;10.268;2023-11-22T01:11:40;6.60;99.90
6788;DHT22;3431;47.966;10.268;2023-11-22T01:12:02;6.60;99.90
6788;DHT22;3431;47.966;10.268;2023-11-22T01:12:24;6.60;99.90
6788;DHT22;3431;47.966;10.268;2023-11-22T01:12:45;6.60;99.90
6788;DHT22;3431;47.966;10.268;2023-11-22T01:13:07;6.60;99.90
6788;DHT22;3431;47.966;10.268;2023-11-22T01:13:29;6.50;99.90
6788;DHT22;3431;47.966;10.268;2023-11-22T01:13:51;6.50;99.90
6788;DHT22;3431;47.966;10.268;2023-11-22T01:14:13;6.50;99.90
6788;DHT22;3431;47.966;10.268;2023-11-22T01:14:34;6.50;99.90
6788;DHT22;3431;47.966;10.268;2023-11-22T01:14:56;6.50;99.90
6788;DHT22;3431;47.966;10.268;2023-11-22T01:15:18;6.50;99.90
6788;DHT22;3431;47.966;10.268;2023-11-22T01:15:40;6.50;99.90
6788;DHT22;3431;47.966;10.268;2023-11-22T01:16:02;6.50;99.90
6788;DHT22;3431;47.966;10.268;2023-11-22T01:16:24;6.50;99.90
6788;DHT22;3431;47.966;10.268;2023-11-22T01:16:45;6.50;99.90
6788;DHT22;3431;47.966;10.268;2023-11-22T01:17:07;6.50;99.90
6788;DHT22;3431;47.966;10.268;2023-11-22T01:17:30;6.50;99.90
6788;DHT22;3431;47.966;10.268;2023-11-22T01:17:53;6.50;99.90
6788;DHT22;3431;47.966;10.268;2023-11-22T01:18:14;6.50;99.90
6788;DHT22;3431;47.966;10.268;2023-11-22T01:18:36;6.50;99.90
6788;DHT22;3431;47.966;10.268;2023-11-22T01:18:58;6.40;99.90
6788;DHT22;3431;47.966;10.268;2023-11-22T01:19:19;6.40;99.90
6788;DHT22;3431;47.966;10.268;2023-11-22T01:19:42;6.40;99.90
6788;DHT22;3431;47.966;10.268;2023-11-22T01:20:04;6.40;99.90
6788;DHT22;3431;47.966;10.268;2023-11-22T01:20:26;6.40;99.90
6788;DHT22;3431;47.966;10.268;2023-11-22T01:20:48;6.40;99.90
6788;DHT22;3431;47.966;10.268;2023-11-22T01:21:10;6.30;99.90
6788;DHT22;3431;47.966;10.268;2023-11-22T01:21:32;6.30;99.90
6788;DHT22;3431;47.966;10.268;2023-11-22T01:21:54;6.30;99.90
6788;DHT22;3431;47.966;10.268;2023-11-22T01:22:15;6.30;99.90
6788;DHT22;3431;47.966;10.268;2023-11-22T01:22:37;6.30;99.90
6788;DHT22;3431;47.966;10.268;2023-11-22T01:22:59;6.20;99.90
6788;DHT22;3431;47.966;10.268;2023-11-22T01:23:20;6.20;99.90
6788;DHT22;3431;47.966;10.268;2023-11-22T01:23:44;6.20;99.90
6788;DHT22;3431;47.966;10.268;2023-11-22T01:24:07;6.20;99.90
6788;DHT22;3431;47.966;10.268;2023-11-22T01:24:29;6.20;99.90
6788;DHT22;3431;47.966;10.268;2023-11-22T01:24:50;6.20;99.90
6788;DHT22;3431;47.966;10.268;2023-11-22T01:25:13;6.10;99.90
6788;DHT22;3431;47.966;10.268;2023-11-22T01:25:35;6.10;99.90
6788;DHT22;3431;47.966;10.268;2023-11-22T01:25:56;6.10;99.90
6788;DHT22;3431;47.966;10.268;2023-11-22T01:26:18;6.10;99.90
6788;DHT22;3431;47.966;10.268;2023-11-22T01:26:39;6.10;99.90
6788;DHT22;3431;47.966;10.268;2023-11-22T01:27:02;6.10;99.90
6788;DHT22;3431;47.966;10.268;2023-11-22T01:27:23;6.00;99.90
6788;DHT22;3431;47.966;10.268;2023-11-22T01:27:45;6.00;99.90
6788;DHT22;3431;47.966;10.268;2023-11-22T01:28:07;6.00;99.90
6788;DHT22;3431;47.966;10.268;2023-11-22T01:28:29;6.00;99.90
6788;DHT22;3431;47.966;10.268;2023-11-22T01:28:50;6.00;99.90
6788;DHT22;3431;47.966;10.268;2023-11-22T01:29:13;6.00;99.90
6788;DHT22;3431;47.966;10.268;2023-11-22T01:29:34;6.00;99.90
6788;DHT22;3431;47.966;10.268;2023-11-22T01:29:56;6.00;99.90
6788;DHT22;3431;47.966;10.268;2023-11-22T01:30:19;6.00;99.90
6788;DHT22;3431;47.966;10.268;2023-11-22T01:30:40;6.00;99.90
6788;DHT22;3431;47.966;10.268;2023-11-22T01:31:03;6.00;99.90
6788;DHT22;3431;47.966;10.268;2023-11-22T01:31:25;6.00;99.90
6788;DHT22;3431;47.966;10.268;2023-11-22T01:31:48;6.00;99.90
6788;DHT22;3431;47.966;10.268;2023-11-22T01:32:11;6.00;99.90
6788;DHT22;3431;47.966;10.268;2023-11-22T01:32:32;6.00;99.90
6788;DHT22;3431;47.966;10.268;2023-11-22T01:32:54;6.00;99.90
6788;DHT22;3431;47.966;10.268;2023-11-22T01:33:17;6.00;99.90
6788;DHT22;3431;47.966;10.268;2023-11-22T01:33:38;6.00;99.90
6788;DHT22;3431;47.966;10.268;2023-11-22T01:34:00;6.00;99.90
6788;DHT22;3431;47.966;10.268;2023-11-22T01:34:22;6.00;99.90
6788;DHT22;3431;47.966;10.268;2023-11-22T01:34:44;6.00;99.90
6788;DHT22;3431;47.966;10.268;2023-11-22T01:35:06;6.00;99.90
6788;DHT22;3431;47.966;10.268;2023-11-22T01:35:28;6.00;99.90
6788;DHT22;3431;47.966;10.268;2023-11-22T01:35:50;6.00;99.90
6788;DHT22;3431;47.966;10.268;2023-11-22T01:36:12;6.00;99.90
6788;DHT22;3431;47.966;10.268;2023-11-22T01:36:33;6.00;99.90
6788;DHT22;3431;47.966;10.268;2023-11-22T01:36:55;6.00;99.90
6788;DHT22;3431;47.966;10.268;2023-11-22T01:37:17;6.00;99.90
6788;DHT22;3431;47.966;10.268;2023-11-22T01:37:39;6.00;99.90
6788;DHT22;3431;47.966;10.268;2023-11-22T01:38:00;5.90;99.90
6788;DHT22;3431;47.966;10.268;2023-11-22T01:38:23;6.00;99.90
6788;DHT22;3431;47.966;10.268;2023-11-22T01:38:46;6.00;99.90
6788;DHT22;3431;47.966;10.268;2023-11-22T01:39:08;6.00;99.90
6788;DHT22;3431;47.966;10.268;2023-11-22T01:39:31;6.00;99.90
6788;DHT22;3431;47.966;10.268;2023-11-22T01:39:52;6.00;99.90
6788;DHT22;3431;47.966;10.268;2023-11-22T01:40:16;6.00;99.90
6788;DHT22;3431;47.966;10.268;2023-11-22T01:40:43;5.90;99.90
6788;DHT22;3431;47.966;10.268;2023-11-22T01:41:05;6.00;99.90
6788;DHT22;3431;47.966;10.268;2023-11-22T01:41:28;5.90;99.90
6788;DHT22;3431;47.966;10.268;2023-11-22T01:41:51;6.00;99.90
6788;DHT22;3431;47.966;10.268;2023-11-22T01:42:12;5.90;99.90
6788;DHT22;3431;47.966;10.268;2023-11-22T01:42:34;6.00;99.90
6788;DHT22;3431;47.966;10.268;2023-11-22T01:42:58;6.00;99.90
6788;DHT22;3431;47.966;10.268;2023-11-22T01:43:20;6.00;99.90
6788;DHT22;3431;47.966;10.268;2023-11-22T01:43:45;6.00;99.90
6788;DHT22;3431;47.966;10.268;2023-11-22T01:44:07;6.00;99.90
6788;DHT22;3431;47.966;10.268;2023-11-22T01:44:29;6.00;99.90
6788;DHT22;3431;47.966;10.268;2023-11-22T01:44:50;6.00;99.90
6788;DHT22;3431;47.966;10.268;2023-11-22T01:45:13;5.90;99.90
6788;DHT22;3431;47.966;10.268;2023-11-22T01:45:35;5.90;99.90
6788;DHT22;3431;47.966;10.268;2023-11-22T01:45:57;6.00;99.90
6788;DHT22;3431;47.966;10.268;2023-11-22T01:46:22;6.00;99.90
6788;DHT22;3431;47.966;10.268;2023-11-22T01:46:45;5.90;99.90
6788;DHT22;3431;47.966;10.268;2023-11-22T01:47:08;6.00;99.90
6788;DHT22;3431;47.966;10.268;2023-11-22T01:47:30;6.00;99.90
6788;DHT22;3431;47.966;10.268;2023-11-22T01:47:53;6.00;99.90
6788;DHT22;3431;47.966;10.268;2023-11-22T01:48:15;6.00;99.90
6788;DHT22;3431;47.966;10.268;2023-11-22T01:48:37;6.00;99.90
6788;DHT22;3431;47.966;10.268;2023-11-22T01:49:00;6.00;99.90
6788;DHT22;3431;47.966;10.268;2023-11-22T01:49:23;6.00;99.90
6788;DHT22;3431;47.966;10.268;2023-11-22T01:49:45;6.00;99.90
6788;DHT22;3431;47.966;10.268;2023-11-22T01:50:08;6.00;99.90
6788;DHT22;3431;47.966;10.268;2023-11-22T01:50:30;6.00;99.90
6788;DHT22;3431;47.966;10.268;2023-11-22T01:50:53;6.00;99.90
6788;DHT22;3431;47.966;10.268;2023-11-22T01:51:15;6.00;99.90
6788;DHT22;3431;47.966;10.268;2023-11-22T01:51:37;6.00;99.90
6788;DHT22;3431;47.966;10.268;2023-11-22T01:51:59;5.90;99.90
6788;DHT22;3431;47.966;10.268;2023-11-22T01:52:22;5.90;99.90
6788;DHT22;3431;47.966;10.268;2023-11-22T01:52:45;5.90;99.90
6788;DHT22;3431;47.966;10.268;2023-11-22T01:53:08;5.90;99.90
6788;DHT22;3431;47.966;10.268;2023-11-22T01:53:32;5.90;99.90
6788;DHT22;3431;47.966;10.268;2023-11-22T01:53:56;5.90;99.90
6788;DHT22;3431;47.966;10.268;2023-11-22T01:54:20;5.90;99.90
6788;DHT22;3431;47.966;10.268;2023-11-22T01:54:44;5.90;99.90
6788;DHT22;3431;47.966;10.268;2023-11-22T01:55:07;5.90;99.90
6788;DHT22;3431;47.966;10.268;2023-11-22T01:55:30;6.00;99.90
6788;DHT22;3431;47.966;10.268;2023-11-22T01:55:52;5.90;99.90
6788;DHT22;3431;47.966;10.268;2023-11-22T01:56:15;6.00;99.90
6788;DHT22;3431;47.966;10.268;2023-11-22T01:56:38;6.00;99.90
6788;DHT22;3431;47.966;10.268;2023-11-22T01:57:01;5.90;99.90
6788;DHT22;3431;47.966;10.268;2023-11-22T01:57:23;6.00;99.90
6788;DHT22;3431;47.966;10.268;2023-11-22T01:57:45;6.00;99.90
6788;DHT22;3431;47.966;10.268;2023-11-22T01:58:07;6.00;99.90
6788;DHT22;3431;47.966;10.268;2023-11-22T01:58:29;6.00;99.90
6788;DHT22;3431;47.966;10.268;2023-11-22T01:58:51;5.90;99.90
6788;DHT22;3431;47.966;10.268;2023-11-22T01:59:16;5.90;99.90
6788;DHT22;3431;47.966;10.268;2023-11-22T01:59:38;5.90;99.90
6788;DHT22;3431;47.966;10.268;2023-11-22T02:00:00;5.90;99.90
6788;DHT22;3431;47.966;10.268;2023-11-22T02:00:36;5.90;99.90
6788;DHT22;3431;47.966;10.268;2023-11-22T02:01:04;5.90;99.90
6788;DHT22;3431;47.966;10.268;2023-11-22T02:01:26;5.90;99.90
6788;DHT22;3431;47.966;10.268;2023-11-22T02:01:48;5.90;99.90
6788;DHT22;3431;47.966;10.268;2023-11-22T02:02:10;5.90;99.90
6788;DHT22;3431;47.966;10.268;2023-11-22T02:02:33;5.90;99.90
6788;DHT22;3431;47.966;10.268;2023-11-22T02:02:55;5.90;99.90
6788;DHT22;3431;47.966;10.268;2023-11-22T02:03:17;5.90;99.90
6788;DHT22;3431;47.966;10.268;2023-11-22T02:03:38;5.90;99.90
6788;DHT22;3431;47.966;10.268;2023-11-22T02:04:00;5.90;99.90
6788;DHT22;3431;47.966;10.268;2023-11-22T02:04:22;6.00;99.90
6788;DHT22;3431;47.966;10.268;2023-11-22T02:04:45;6.00;99.90
6788;DHT22;3431;47.966;10.268;2023-11-22T02:05:07;6.00;99.90
6788;DHT22;3431;47.966;10.268;2023-11-22T02:05:29;6.00;99.90
6788;DHT22;3431;47.966;10.268;2023-11-22T02:05:51;6.00;99.90
6788;DHT22;3431;47.966;10.268;2023-11-22T02:06:12;5.90;99.90
6788;DHT22;3431;47.966;10.268;2023-11-22T02:06:35;6.00;99.90
6788;DHT22;3431;47.966;10.268;2023-11-22T02:06:58;6.00;99.90
6788;DHT22;3431;47.966;10.268;2023-11-22T02:07:20;6.00;99.90
6788;DHT22;3431;47.966;10.268;2023-11-22T02:07:42;6.00;99.90
6788;DHT22;3431;47.966;10.268;2023-11-22T02:08:03;5.90;99.90
6788;DHT22;3431;47.966;10.268;2023-11-22T02:08:26;5.90;99.90
6788;DHT22;3431;47.966;10.268;2023-11-22T02:08:49;5.90;99.90
6788;DHT22;3431;47.966;10.268;2023-11-22T02:09:14;6.00;99.90
6788;DHT22;3431;47.966;10.268;2023-11-22T02:09:37;6.00;99.90
6788;DHT22;3431;47.966;10.268;2023-11-22T02:09:58;6.00;99.90
6788;DHT22;3431;47.966;10.268;2023-11-22T02:10:20;6.00;99.90
6788;DHT22;3431;47.966;10.268;2023-11-22T02:10:42;6.00;99.90
6788;DHT22;3431;47.966;10.268;2023-11-22T02:11:06;6.00;99.90
6788;DHT22;3431;47.966;10.268;2023-11-22T02:11:27;6.00;99.90
6788;DHT22;3431;47.966;10.268;2023-11-22T02:11:49;6.00;99.90
6788;DHT22;3431;47.966;10.268;2023-11-22T02:12:10;6.00;99.90
6788;DHT22;3431;47.966;10.268;2023-11-22T02:12:32;6.00;99.90
6788;DHT22;3431;47.966;10.268;2023-11-22T02:12:54;6.00;99.90
6788;DHT22;3431;47.966;10.268;2023-11-22T02:13:17;5.90;99.90
6788;DHT22;3431;47.966;10.268;2023-11-22T02:13:38;5.90;99.90
6788;DHT22;3431;47.966;10.268;2023-11-22T02:14:00;5.90;99.90
6788;DHT22;3431;47.966;10.268;2023-11-22T02:14:22;5.90;99.90
6788;DHT22;3431;47.966;10.268;2023-11-22T02:14:43;5.90;99.90
6788;DHT22;3431;47.966;10.268;2023-11-22T02:15:07;5.90;99.90
6788;DHT22;3431;47.966;10.268;2023-11-22T02:15:29;5.90;99.90
6788;DHT22;3431;47.966;10.268;2023-11-22T02:15:51;5.90;99.90
6788;DHT22;3431;47.966;10.268;2023-11-22T02:16:14;5.90;99.90
6788;DHT22;3431;47.966;10.268;2023-11-22T02:16:36;5.90;99.90
6788;DHT22;3431;47.966;10.268;2023-11-22T02:16:59;5.90;99.90
6788;DHT22;3431;47.966;10.268;2023-11-22T02:17:21;5.90;99.90
6788;DHT22;3431;47.966;10.268;2023-11-22T02:17:43;5.90;99.90
6788;DHT22;3431;47.966;10.268;2023-11-22T02:18:05;5.90;99.90
6788;DHT22;3431;47.966;10.268;2023-11-22T02:18:28;5.90;99.90
6788;DHT22;3431;47.966;10.268;2023-11-22T02:18:50;5.90;99.90
6788;DHT22;3431;47.966;10.268;2023-11-22T02:19:15;5.90;99.90
6788;DHT22;3431;47.966;10.268;2023-11-22T02:19:37;5.90;99.90
6788;DHT22;3431;47.966;10.268;2023-11-22T02:19:58;5.90;99.90
6788;DHT22;3431;47.966;10.268;2023-11-22T02:20:20;5.90;99.90
6788;DHT22;3431;47.966;10.268;2023-11-22T02:20:43;5.90;99.90
6788;DHT22;3431;47.966;10.268;2023-11-22T02:21:06;5.90;99.90
6788;DHT22;3431;47.966;10.268;2023-11-22T02:21:27;5.90;99.90
6788;DHT22;3431;47.966;10.268;2023-11-22T02:21:49;5.90;99.90
6788;DHT22;3431;47.966;10.268;2023-11-22T02:22:11;5.90;99.90
6788;DHT22;3431;47.966;10.268;2023-11-22T02:22:33;6.00;99.90
6788;DHT22;3431;47.966;10.268;2023-11-22T02:22:55;6.00;99.90
6788;DHT22;3431;47.966;10.268;2023-11-22T02:23:18;6.00;99.90
6788;DHT22;3431;47.966;10.268;2023-11-22T02:23:40;6.00;99.90
6788;DHT22;3431;47.966;10.268;2023-11-22T02:24:01;6.00;99.90
6788;DHT22;3431;47.966;10.268;2023-11-22T02:24:23;6.00;99.90
6788;DHT22;3431;47.966;10.268;2023-11-22T02:24:45;6.00;99.90
6788;DHT22;3431;47.966;10.268;2023-11-22T02:25:07;6.00;99.90